Wind van: 22-02-2020 08:00 tot: 15:00 waarschuwing voor: Wind niveau: Geel info button
Zware windstoten tot 80 km/uur, in de kustgebieden rond 90 km/uur.Kans op windstoten.Verkeer en buitenactiviteiten kunnen hinder ondervinden.Volg weerberichten en waarschuwingen.



Onweer radar Meer informatie blitzortung!


Regen radar Meer informatie rain snow radar


Bezoek onze andere website:

Template documentation
and downloads

And another site



Select another period ( hide this area )

Eenheden Periode Custom range Directly to
Metrisch Engels Beide
Dagelijkse Wekelijkse Maandelijkse Jaarlijkse
use both date-selectors for a custom range
previous Dag
With this date

WeatherUnderground graphs for this period ( click here )


Dagelijkse Samenvatting Zaterdag 22 februari 2020
Tijd Temp. ( °C ) Dew pt. ( °C ) Wind ( km/h ) van Windvlaag ( km/h ) Luchtdruk ( hPa ) Humid.( % ) Rainrate ( cm )
Hoog9,3 7,6 64,8 ZW ( 2337/5236 ) 36,2 1017,9 91 0,60
Gemiddeld8,6 6,5 41,2 ZW #56/127 27,0 1014,2 87 0,70
Laag7,8 6,0 27,8   16,9 1011,8 83 -
Dagelijkse Tabular details for Zaterdag 22 februari 2020
Tijd Temp. ( °C ) Dew pt. ( °C ) Wind ( km/h ) van Windvlaag ( km/h ) Luchtdruk ( hPa ) Humid.( % ) Rainrate ( cm )
00:00 8,8 6,6 29,6 ZW 20,4 1017,7 86 -
00:05 8,8 6,6 42,6 Zuiden 26,2 1017,8 86 -
00:10 8,8 6,6 27,8 WZW 19,8 1017,8 86 -
00:15 8,8 6,6 27,8 ZZW 16,9 1017,7 86 -
00:20 8,9 6,5 42,6 ZW 28,5 1017,8 85 -
00:25 8,9 6,6 37,0 ZZW 23,5 1017,8 85 -
00:30 9,0 6,4 42,6 ZW 27,2 1017,7 84 -
00:35 9,1 6,5 51,5 ZZW 28,0 1017,9 84 -
00:40 9,1 6,5 42,6 ZW 30,1 1017,8 84 -
00:45 9,1 6,6 35,2 WZW 22,0 1017,3 84 -
00:50 9,1 6,4 43,4 ZW 29,0 1017,1 83 -
00:55 9,1 6,3 42,6 WZW 24,0 1017,2 83 -
01:00 9,1 6,5 40,2 WZW 27,0 1017,3 84 -
01:05 9,1 6,3 42,6 ZW 21,9 1017,2 83 -
01:10 9,1 6,4 31,5 ZW 24,1 1016,8 83 -
01:15 9,1 6,4 32,2 WZW 22,5 1017,0 83 -
01:20 9,1 6,4 48,1 ZW 34,4 1016,6 83 -
01:25 9,1 6,4 40,7 ZW 27,4 1016,8 83 -
01:30 9,1 6,4 33,3 ZW 25,7 1016,5 83 -
01:35 9,1 6,4 42,6 WZW 29,0 1016,4 83 -
01:40 9,1 6,4 30,6 WZW 22,5 1016,1 83 -
01:45 9,1 6,4 53,7 WZW 32,5 1015,9 83 -
01:50 9,1 6,3 27,8 ZZW 20,4 1015,8 83 -
01:55 9,1 6,3 37,0 ZW 25,3 1015,8 83 -
02:00 9,1 6,3 37,0 ZW 28,5 1016,1 83 -
02:05 9,1 6,5 40,7 Zuiden 29,1 1016,2 84 -
02:10 9,1 6,6 48,1 ZZW 34,8 1016,1 84 -
02:15 9,1 6,6 35,2 ZW 25,9 1016,3 84 -
02:20 9,1 6,6 38,9 ZW 24,1 1016,1 84 -
02:25 9,1 6,5 38,9 ZW 26,4 1016,0 84 -
02:30 9,0 6,6 31,5 ZZW 23,7 1015,6 85 -
02:35 8,9 6,6 33,3 ZW 28,3 1015,7 85 -
02:40 9,0 6,4 31,5 ZZW 22,0 1015,5 84 -
02:45 9,0 6,4 48,3 WZW 23,5 1015,6 84 -
02:50 9,0 6,6 37,0 ZW 26,5 1015,5 85 -
02:55 8,9 6,6 35,2 ZZO 24,1 1015,3 85 -
03:00 8,9 6,5 38,9 ZW 29,1 1015,4 85 -
03:05 8,9 6,5 38,9 ZZW 24,9 1015,3 85 -
03:10 8,9 6,5 35,2 WZW 22,7 1015,3 85 -
03:15 8,8 6,4 31,5 ZZW 23,7 1015,3 85 -
03:20 8,8 6,4 42,6 ZW 26,2 1015,2 85 -
03:25 8,8 6,4 42,6 ZZW 29,1 1015,1 85 -
03:30 8,8 6,9 40,7 Zuiden 25,9 1015,2 88 -
03:35 8,9 6,3 35,2 ZZW 22,8 1015,2 84 -
03:40 8,9 6,3 42,6 Westen 26,1 1015,2 84 -
03:45 8,9 6,5 38,9 ZZO 28,6 1015,1 85 -
03:50 8,8 6,4 42,6 Zuiden 31,9 1015,1 85 -
03:55 8,9 6,5 50,0 WZW 32,3 1014,8 85 -
04:00 8,8 6,3 53,7 ZW 32,0 1014,5 84 -
04:05 8,8 6,3 48,1 ZZW 33,1 1014,5 84 -
04:10 8,8 6,4 42,6 ZW 26,5 1014,4 85 -
04:15 8,8 7,1 53,7 ZZW 36,2 1014,2 89 -
04:20 8,8 6,4 44,4 ZZW 28,3 1014,3 85 -
04:25 8,8 6,6 53,7 ZW 33,5 1014,4 86 -
04:30 8,8 6,6 35,2 ZW 21,6 1014,0 86 -
04:35 8,7 6,5 44,4 ZW 26,2 1013,8 86 -
04:40 8,7 6,4 44,4 ZZW 29,3 1013,6 86 -
04:45 8,7 6,5 35,2 ZZW 27,7 1013,8 86 -
04:50 8,7 6,5 40,7 ZZW 24,1 1013,9 86 -
04:55 8,7 6,5 38,9 Zuiden 27,0 1013,9 86 -
05:00 8,7 6,4 48,1 ZZW 33,6 1013,9 86 -
05:05 8,7 6,4 50,0 ZZW 32,7 1013,4 86 -
05:10 8,7 6,4 46,3 Zuiden 27,0 1013,4 86 -
05:15 8,6 6,4 42,6 ZW 27,7 1013,3 86 -
05:20 8,6 6,4 51,8 ZZW 34,6 1013,2 86 -
05:25 8,6 6,4 40,7 WZW 26,2 1013,1 86 -
05:30 8,6 6,3 33,3 WZW 21,6 1013,1 86 -
05:35 8,5 6,3 40,7 ZW 27,7 1013,1 86 -
05:40 8,4 6,2 40,7 WZW 25,3 1013,3 86 -
05:45 8,4 6,2 37,0 ZW 26,9 1013,1 86 -
05:50 8,4 6,2 53,7 ZW 34,1 1013,2 86 -
05:55 8,4 6,2 37,0 ZW 25,9 1013,2 86 -
06:00 8,4 6,2 42,6 ZW 30,9 1012,9 86 -
06:05 8,3 6,1 40,7 ZZW 29,3 1012,9 86 -
06:10 8,3 6,1 42,6 ZW 30,1 1012,9 86 -
06:15 8,3 6,1 38,6 ZW 22,5 1012,7 86 -
06:20 8,2 6,0 48,1 Zuiden 29,8 1012,3 86 -
06:25 8,2 6,0 46,3 ZW 27,5 1012,4 86 -
06:30 8,2 6,2 29,6 WZW 20,8 1012,8 87 -
06:35 8,2 6,1 42,6 ZW 22,4 1012,4 87 -
06:40 8,2 6,1 31,5 ZZW 18,8 1012,5 87 -
06:45 8,2 6,2 37,0 ZW 26,1 1013,1 87 -
06:50 8,2 6,3 27,8 ZW 19,1 1012,7 88 -
06:55 8,2 6,3 38,9 ZW 29,4 1012,8 88 -
07:00 8,1 6,2 38,9 ZZW 24,3 1012,7 88 -
07:05 8,1 6,3 38,9 ZZW 24,3 1012,9 89 -
07:10 8,1 6,3 37,0 ZW 22,0 1013,3 89 -
07:15 8,0 6,3 31,5 WZW 20,0 1012,9 89 -
07:20 8,0 6,3 42,6 ZW 27,5 1012,4 89 0,20
07:25 7,9 6,2 35,2 ZW 24,0 1012,5 89 0,20
07:30 7,9 6,4 46,7 ZZW 20,4 1012,3 90 0,20
07:35 7,9 6,3 29,6 ZZW 18,0 1012,3 90 0,20
07:40 7,8 6,3 33,8 ZW 24,5 1012,5 90 0,20
07:45 7,8 6,3 42,6 ZZW 24,0 1012,3 90 0,20
07:50 7,8 6,3 45,1 ZZW 30,2 1012,5 90 0,20
07:55 7,8 6,3 37,0 Zuiden 27,4 1013,0 90 0,40
08:00 7,8 6,3 42,6 WZW 28,8 1012,7 90 0,60
08:05 7,8 6,2 50,0 ZW 31,9 1012,5 90 0,60
08:10 7,8 6,4 38,9 ZZW 27,2 1012,4 91 0,60
08:15 7,8 6,4 48,3 ZW 28,0 1012,6 91 0,60
08:20 7,8 6,4 42,6 ZW 27,8 1012,7 91 0,40
08:25 7,8 6,4 42,6 ZZW 29,0 1012,9 91 0,40
08:30 7,8 6,4 42,6 WZW 29,0 1012,8 91 0,40
08:35 7,9 6,5 40,7 ZW 24,3 1012,4 91 0,40
08:40 7,9 6,6 38,9 ZZW 27,4 1012,9 91 0,40
08:45 8,0 6,6 29,6 ZZW 22,2 1012,6 91 0,40
08:50 8,1 6,7 35,2 ZZW 26,4 1012,7 91 0,40
08:55 8,1 6,5 48,1 ZW 27,5 1012,7 90 0,20
09:00 8,2 6,6 48,1 WZW 29,1 1012,8 90 -
09:05 8,2 6,7 51,8 ZW 33,5 1012,9 90 -
09:10 8,3 6,8 48,1 ZW 29,3 1012,7 90 -
09:15 8,4 6,9 46,3 Zuiden 30,1 1012,2 90 -
09:20 8,6 7,0 55,5 ZW 35,6 1012,4 90 -
09:25 8,7 6,9 42,6 ZW 28,3 1012,2 89 -
09:30 8,7 7,0 57,4 ZW 31,5 1012,2 89 -
09:35 8,8 7,1 44,4 Westen 27,5 1012,1 89 -
09:40 8,8 7,1 50,0 WZW 29,8 1011,9 89 -
09:45 8,9 7,2 38,6 ZW 25,1 1011,8 89 -
09:50 8,9 7,2 44,4 WZW 31,2 1011,8 89 -
09:55 8,9 7,2 38,6 ZW 22,0 1012,2 89 -
10:00 8,9 7,2 48,1 ZW 33,0 1012,4 89 -
10:05 9,1 7,3 64,8 ZZW 35,9 1012,5 89 -
10:10 9,1 7,4 51,8 ZW 35,6 1012,6 89 -
10:15 9,2 7,4 33,3 ZW 24,9 1012,5 89 -
10:20 9,2 7,4 37,0 Zuiden 29,0 1012,5 89 -
10:25 9,2 7,5 48,1 ZZW 32,7 1012,4 89 -
10:30 9,3 7,6 44,4 WZW 29,1 1013,0 89 -
Dagelijkse Samenvatting Zaterdag 22 februari 2020
Tijd Temp. ( °C ) Dew pt. ( °C ) Wind ( km/h ) van Windvlaag ( km/h ) Luchtdruk ( hPa ) Humid.( % ) Rainrate ( cm )
Hoog9,3 7,6 64,8 ZW ( 2337/5236 ) 36,2 1017,9 91 0,60
Gemiddeld8,6 6,5 41,2 ZW #56/127 27,0 1014,2 87 0,70
Laag7,8 6,0 27,8   16,9 1011,8 83 -
Dagelijkse Tabular details for Zaterdag 22 februari 2020
Tijd Temp. ( °C ) Dew pt. ( °C ) Wind ( km/h ) van Windvlaag ( km/h ) Luchtdruk ( hPa ) Humid.( % ) Rainrate ( cm )
00:00 8,8 6,6 29,6 ZW 20,4 1017,7 86 -
00:05 8,8 6,6 42,6 Zuiden 26,2 1017,8 86 -
00:10 8,8 6,6 27,8 WZW 19,8 1017,8 86 -
00:15 8,8 6,6 27,8 ZZW 16,9 1017,7 86 -
00:20 8,9 6,5 42,6 ZW 28,5 1017,8 85 -
00:25 8,9 6,6 37,0 ZZW 23,5 1017,8 85 -
00:30 9,0 6,4 42,6 ZW 27,2 1017,7 84 -
00:35 9,1 6,5 51,5 ZZW 28,0 1017,9 84 -
00:40 9,1 6,5 42,6 ZW 30,1 1017,8 84 -
00:45 9,1 6,6 35,2 WZW 22,0 1017,3 84 -
00:50 9,1 6,4 43,4 ZW 29,0 1017,1 83 -
00:55 9,1 6,3 42,6 WZW 24,0 1017,2 83 -
01:00 9,1 6,5 40,2 WZW 27,0 1017,3 84 -
01:05 9,1 6,3 42,6 ZW 21,9 1017,2 83 -
01:10 9,1 6,4 31,5 ZW 24,1 1016,8 83 -
01:15 9,1 6,4 32,2 WZW 22,5 1017,0 83 -
01:20 9,1 6,4 48,1 ZW 34,4 1016,6 83 -
01:25 9,1 6,4 40,7 ZW 27,4 1016,8 83 -
01:30 9,1 6,4 33,3 ZW 25,7 1016,5 83 -
01:35 9,1 6,4 42,6 WZW 29,0 1016,4 83 -
01:40 9,1 6,4 30,6 WZW 22,5 1016,1 83 -
01:45 9,1 6,4 53,7 WZW 32,5 1015,9 83 -
01:50 9,1 6,3 27,8 ZZW 20,4 1015,8 83 -
01:55 9,1 6,3 37,0 ZW 25,3 1015,8 83 -
02:00 9,1 6,3 37,0 ZW 28,5 1016,1 83 -
02:05 9,1 6,5 40,7 Zuiden 29,1 1016,2 84 -
02:10 9,1 6,6 48,1 ZZW 34,8 1016,1 84 -
02:15 9,1 6,6 35,2 ZW 25,9 1016,3 84 -
02:20 9,1 6,6 38,9 ZW 24,1 1016,1 84 -
02:25 9,1 6,5 38,9 ZW 26,4 1016,0 84 -
02:30 9,0 6,6 31,5 ZZW 23,7 1015,6 85 -
02:35 8,9 6,6 33,3 ZW 28,3 1015,7 85 -
02:40 9,0 6,4 31,5 ZZW 22,0 1015,5 84 -
02:45 9,0 6,4 48,3 WZW 23,5 1015,6 84 -
02:50 9,0 6,6 37,0 ZW 26,5 1015,5 85 -
02:55 8,9 6,6 35,2 ZZO 24,1 1015,3 85 -
03:00 8,9 6,5 38,9 ZW 29,1 1015,4 85 -
03:05 8,9 6,5 38,9 ZZW 24,9 1015,3 85 -
03:10 8,9 6,5 35,2 WZW 22,7 1015,3 85 -
03:15 8,8 6,4 31,5 ZZW 23,7 1015,3 85 -
03:20 8,8 6,4 42,6 ZW 26,2 1015,2 85 -
03:25 8,8 6,4 42,6 ZZW 29,1 1015,1 85 -
03:30 8,8 6,9 40,7 Zuiden 25,9 1015,2 88 -
03:35 8,9 6,3 35,2 ZZW 22,8 1015,2 84 -
03:40 8,9 6,3 42,6 Westen 26,1 1015,2 84 -
03:45 8,9 6,5 38,9 ZZO 28,6 1015,1 85 -
03:50 8,8 6,4 42,6 Zuiden 31,9 1015,1 85 -
03:55 8,9 6,5 50,0 WZW 32,3 1014,8 85 -
04:00 8,8 6,3 53,7 ZW 32,0 1014,5 84 -
04:05 8,8 6,3 48,1 ZZW 33,1 1014,5 84 -
04:10 8,8 6,4 42,6 ZW 26,5 1014,4 85 -
04:15 8,8 7,1 53,7 ZZW 36,2 1014,2 89 -
04:20 8,8 6,4 44,4 ZZW 28,3 1014,3 85 -
04:25 8,8 6,6 53,7 ZW 33,5 1014,4 86 -
04:30 8,8 6,6 35,2 ZW 21,6 1014,0 86 -
04:35 8,7 6,5 44,4 ZW 26,2 1013,8 86 -
04:40 8,7 6,4 44,4 ZZW 29,3 1013,6 86 -
04:45 8,7 6,5 35,2 ZZW 27,7 1013,8 86 -
04:50 8,7 6,5 40,7 ZZW 24,1 1013,9 86 -
04:55 8,7 6,5 38,9 Zuiden 27,0 1013,9 86 -
05:00 8,7 6,4 48,1 ZZW 33,6 1013,9 86 -
05:05 8,7 6,4 50,0 ZZW 32,7 1013,4 86 -
05:10 8,7 6,4 46,3 Zuiden 27,0 1013,4 86 -
05:15 8,6 6,4 42,6 ZW 27,7 1013,3 86 -
05:20 8,6 6,4 51,8 ZZW 34,6 1013,2 86 -
05:25 8,6 6,4 40,7 WZW 26,2 1013,1 86 -
05:30 8,6 6,3 33,3 WZW 21,6 1013,1 86 -
05:35 8,5 6,3 40,7 ZW 27,7 1013,1 86 -
05:40 8,4 6,2 40,7 WZW 25,3 1013,3 86 -
05:45 8,4 6,2 37,0 ZW 26,9 1013,1 86 -
05:50 8,4 6,2 53,7 ZW 34,1 1013,2 86 -
05:55 8,4 6,2 37,0 ZW 25,9 1013,2 86 -
06:00 8,4 6,2 42,6 ZW 30,9 1012,9 86 -
06:05 8,3 6,1 40,7 ZZW 29,3 1012,9 86 -
06:10 8,3 6,1 42,6 ZW 30,1 1012,9 86 -
06:15 8,3 6,1 38,6 ZW 22,5 1012,7 86 -
06:20 8,2 6,0 48,1 Zuiden 29,8 1012,3 86 -
06:25 8,2 6,0 46,3 ZW 27,5 1012,4 86 -
06:30 8,2 6,2 29,6 WZW 20,8 1012,8 87 -
06:35 8,2 6,1 42,6 ZW 22,4 1012,4 87 -
06:40 8,2 6,1 31,5 ZZW 18,8 1012,5 87 -
06:45 8,2 6,2 37,0 ZW 26,1 1013,1 87 -
06:50 8,2 6,3 27,8 ZW 19,1 1012,7 88 -
06:55 8,2 6,3 38,9 ZW 29,4 1012,8 88 -
07:00 8,1 6,2 38,9 ZZW 24,3 1012,7 88 -
07:05 8,1 6,3 38,9 ZZW 24,3 1012,9 89 -
07:10 8,1 6,3 37,0 ZW 22,0 1013,3 89 -
07:15 8,0 6,3 31,5 WZW 20,0 1012,9 89 -
07:20 8,0 6,3 42,6 ZW 27,5 1012,4 89 0,20
07:25 7,9 6,2 35,2 ZW 24,0 1012,5 89 0,20
07:30 7,9 6,4 46,7 ZZW 20,4 1012,3 90 0,20
07:35 7,9 6,3 29,6 ZZW 18,0 1012,3 90 0,20
07:40 7,8 6,3 33,8 ZW 24,5 1012,5 90 0,20
07:45 7,8 6,3 42,6 ZZW 24,0 1012,3 90 0,20
07:50 7,8 6,3 45,1 ZZW 30,2 1012,5 90 0,20
07:55 7,8 6,3 37,0 Zuiden 27,4 1013,0 90 0,40
08:00 7,8 6,3 42,6 WZW 28,8 1012,7 90 0,60
08:05 7,8 6,2 50,0 ZW 31,9 1012,5 90 0,60
08:10 7,8 6,4 38,9 ZZW 27,2 1012,4 91 0,60
08:15 7,8 6,4 48,3 ZW 28,0 1012,6 91 0,60
08:20 7,8 6,4 42,6 ZW 27,8 1012,7 91 0,40
08:25 7,8 6,4 42,6 ZZW 29,0 1012,9 91 0,40
08:30 7,8 6,4 42,6 WZW 29,0 1012,8 91 0,40
08:35 7,9 6,5 40,7 ZW 24,3 1012,4 91 0,40
08:40 7,9 6,6 38,9 ZZW 27,4 1012,9 91 0,40
08:45 8,0 6,6 29,6 ZZW 22,2 1012,6 91 0,40
08:50 8,1 6,7 35,2 ZZW 26,4 1012,7 91 0,40
08:55 8,1 6,5 48,1 ZW 27,5 1012,7 90 0,20
09:00 8,2 6,6 48,1 WZW 29,1 1012,8 90 -
09:05 8,2 6,7 51,8 ZW 33,5 1012,9 90 -
09:10 8,3 6,8 48,1 ZW 29,3 1012,7 90 -
09:15 8,4 6,9 46,3 Zuiden 30,1 1012,2 90 -
09:20 8,6 7,0 55,5 ZW 35,6 1012,4 90 -
09:25 8,7 6,9 42,6 ZW 28,3 1012,2 89 -
09:30 8,7 7,0 57,4 ZW 31,5 1012,2 89 -
09:35 8,8 7,1 44,4 Westen 27,5 1012,1 89 -
09:40 8,8 7,1 50,0 WZW 29,8 1011,9 89 -
09:45 8,9 7,2 38,6 ZW 25,1 1011,8 89 -
09:50 8,9 7,2 44,4 WZW 31,2 1011,8 89 -
09:55 8,9 7,2 38,6 ZW 22,0 1012,2 89 -
10:00 8,9 7,2 48,1 ZW 33,0 1012,4 89 -
10:05 9,1 7,3 64,8 ZZW 35,9 1012,5 89 -
10:10 9,1 7,4 51,8 ZW 35,6 1012,6 89 -
10:15 9,2 7,4 33,3 ZW 24,9 1012,5 89 -
10:20 9,2 7,4 37,0 Zuiden 29,0 1012,5 89 -
10:25 9,2 7,5 48,1 ZZW 32,7 1012,4 89 -
10:30 9,3 7,6 44,4 WZW 29,1 1013,0 89 -

Download your copy of this data-set  here

Our weather-data as stored at Weather Underground. Script ontwikkeld door Jim McMurry. Aangepast voor de template door Leuven-Template.eu

U vindt ons ook hier:

Het Weer Aktueel

European Weather Network

Weather Underground

Benelux Weer Netwerk

Citizen Weather Observer Program (CWOP)

Apparatuur in gebruik:

Weerstation
Davis VP2

Weerprogramma
Weather Display

Weercomputer
My Computer

Webleverancier
WeservIT

Davis VP2

Weather Display

My Computer

WeservIT